Time;durP1;ratioP1;P1;durP2;ratioP2;P2;SDS_P1;SDS_P2;PMS_P1;PMS_P2;Temp;Humidity;BMP_temperature;BMP_pressure;BME280_temperature;BME280_humidity;BME280_pressure;Samples;Min_cycle;Max_cycle;Signal;HPM_P1;HPM_P2
2022/05/17 00:01:22;;;;;;;8.60;5.35;;;;;;;18.99;77.56;100644.22;5022260;28;20038;-77
2022/05/17 00:03:48;;;;;;;7.63;4.82;;;;;;;19.05;76.52;100645.78;5008016;28;20527;-76
2022/05/17 00:06:13;;;;;;;7.25;4.80;;;;;;;19.02;76.95;100635.19;5025755;28;20061;-77
2022/05/17 00:08:39;;;;;;;7.28;4.60;;;;;;;18.96;76.81;100644.31;5024146;28;20041;-77
2022/05/17 00:11:06;;;;;;;8.80;4.20;;;;;;;18.94;77.05;100648.88;5023879;28;20084;-77
2022/05/17 00:13:32;;;;;;;8.85;5.18;;;;;;;18.89;77.49;100640.16;5005511;28;20042;-77
2022/05/17 00:15:59;;;;;;;8.02;3.90;;;;;;;18.86;77.65;100639.38;5025466;28;20103;-77
2022/05/17 00:18:25;;;;;;;6.47;3.83;;;;;;;18.86;77.25;100634.03;5009753;28;20057;-77
2022/05/17 00:20:51;;;;;;;6.50;3.97;;;;;;;18.75;77.90;100632.66;5031320;28;20542;-77
2022/05/17 00:23:17;;;;;;;7.75;3.90;;;;;;;18.77;77.57;100636.16;5024184;28;20076;-77
2022/05/17 00:25:47;;;;;;;5.65;3.50;;;;;;;18.77;76.98;100638.81;5005196;28;20034;-77
2022/05/17 00:28:19;;;;;;;6.88;3.85;;;;;;;18.72;78.08;100637.22;5032291;28;20745;-77
2022/05/17 00:30:45;;;;;;;6.20;3.63;;;;;;;18.71;77.53;100631.00;5008338;28;20083;-77
2022/05/17 00:33:11;;;;;;;7.30;4.13;;;;;;;18.73;77.24;100633.59;5026049;28;20600;-77
2022/05/17 00:35:36;;;;;;;7.65;3.50;;;;;;;18.69;77.16;100638.22;5023062;28;20037;-77
2022/05/17 00:38:02;;;;;;;6.38;3.47;;;;;;;18.71;77.52;100632.81;5007858;28;20048;-77
2022/05/17 00:40:27;;;;;;;6.13;3.30;;;;;;;18.68;77.76;100636.47;5025513;28;20076;-77
2022/05/17 00:42:53;;;;;;;4.93;3.38;;;;;;;18.66;77.35;100637.47;5026618;28;20052;-77
2022/05/17 00:45:18;;;;;;;6.68;4.10;;;;;;;18.68;77.58;100631.13;5025625;28;20038;-77
2022/05/17 00:47:50;;;;;;;5.97;4.00;;;;;;;18.64;77.80;100628.63;5023851;28;20041;-78
2022/05/17 00:50:37;;;;;;;8.35;3.70;;;;;;;18.65;78.06;100625.88;5025489;28;20037;-77
2022/05/17 00:53:11;;;;;;;5.32;3.95;;;;;;;18.64;77.79;100634.84;5027724;28;20044;-77
2022/05/17 00:55:45;;;;;;;5.18;3.22;;;;;;;18.64;77.85;100634.84;5022381;28;20125;-76
2022/05/17 00:58:17;;;;;;;8.00;3.63;;;;;;;18.58;77.69;100629.72;5005279;28;20087;-77
2022/05/17 01:00:55;;;;;;;7.07;4.13;;;;;;;18.56;77.96;100626.25;5021768;28;20033;-77
2022/05/17 01:03:24;;;;;;;6.25;3.72;;;;;;;18.55;77.94;100624.50;5022110;28;20034;-77
2022/05/17 01:05:54;;;;;;;5.00;3.72;;;;;;;18.51;78.03;100618.38;5024786;28;20037;-77
2022/05/17 01:08:21;;;;;;;5.00;3.50;;;;;;;18.58;77.78;100619.91;5006357;28;20037;-77
2022/05/17 01:10:46;;;;;;;5.40;3.83;;;;;;;18.55;77.44;100624.50;5022218;28;20033;-77
2022/05/17 01:15:57;;;;;;;9.00;3.70;;;;;;;18.54;77.34;100623.63;5009878;28;20056;-77
2022/05/17 01:18:24;;;;;;;6.00;3.58;;;;;;;18.51;77.13;100613.03;5031764;28;20132;-77
2022/05/17 01:20:49;;;;;;;5.28;3.28;;;;;;;18.49;77.19;100612.22;5017938;28;20527;-77
2022/05/17 01:23:15;;;;;;;8.43;4.15;;;;;;;18.43;77.72;100619.63;5005729;28;20037;-77
2022/05/17 01:25:40;;;;;;;4.40;2.95;;;;;;;18.36;78.02;100619.81;5026115;28;20037;-77
2022/05/17 01:28:19;;;;;;;6.47;3.83;;;;;;;18.42;78.07;100613.41;5024415;28;20041;-77
2022/05/17 01:30:44;;;;;;;5.15;3.75;;;;;;;18.43;77.14;100614.28;5004980;28;20089;-77
2022/05/17 01:33:15;;;;;;;6.55;4.22;;;;;;;18.37;77.67;100618.91;4991743;28;20057;-77
2022/05/17 01:35:41;;;;;;;6.97;4.18;;;;;;;18.29;78.03;100617.47;5024170;28;20077;-77
2022/05/17 01:38:07;;;;;;;4.75;3.50;;;;;;;18.27;78.38;100614.84;5027423;28;20047;-77
2022/05/17 01:40:33;;;;;;;5.22;3.70;;;;;;;18.33;77.71;100619.06;5023169;28;20499;-77
2022/05/17 01:42:58;;;;;;;4.90;3.85;;;;;;;18.34;77.44;100612.81;5016020;28;20037;-77
2022/05/17 01:45:23;;;;;;;6.20;4.60;;;;;;;18.32;77.28;100618.22;5024762;28;20047;-77
2022/05/17 01:47:49;;;;;;;6.90;4.30;;;;;;;18.29;78.37;100623.66;5011516;28;20034;-77
2022/05/17 01:50:14;;;;;;;5.40;4.18;;;;;;;18.27;78.15;100636.22;5026825;28;20034;-77
2022/05/17 01:52:40;;;;;;;7.15;4.72;;;;;;;18.23;78.75;100631.88;5023875;28;20041;-77
2022/05/17 01:55:05;;;;;;;6.47;4.13;;;;;;;18.22;79.19;100632.81;5015453;28;20037;-77
2022/05/17 01:57:31;;;;;;;10.48;4.90;;;;;;;18.19;79.60;100632.94;5017114;28;20025;-77
2022/05/17 01:59:56;;;;;;;6.57;4.35;;;;;;;18.20;79.46;100637.34;5023061;28;20078;-77
2022/05/17 02:02:22;;;;;;;6.05;4.47;;;;;;;18.23;79.40;100636.38;5007797;28;20041;-77
2022/05/17 02:04:47;;;;;;;6.75;5.05;;;;;;;18.22;79.76;100638.16;5023619;28;20049;-77
2022/05/17 02:07:13;;;;;;;8.00;5.25;;;;;;;18.17;80.48;100632.13;5028369;28;20041;-77
2022/05/17 02:09:38;;;;;;;8.32;6.03;;;;;;;18.12;81.25;100629.59;5029554;28;20034;-77
2022/05/17 02:12:04;;;;;;;7.65;5.78;;;;;;;18.11;80.77;100629.69;5015676;28;20482;-77
2022/05/17 02:14:29;;;;;;;7.68;5.82;;;;;;;17.99;82.56;100625.63;5004917;28;20037;-77
2022/05/17 02:16:55;;;;;;;8.93;5.88;;;;;;;17.94;82.89;100623.13;5018393;28;20029;-77
2022/05/17 02:19:23;;;;;;;7.55;5.72;;;;;;;17.89;83.71;100622.44;5032229;28;20034;-77
2022/05/17 02:21:48;;;;;;;7.72;6.45;;;;;;;17.81;83.83;100635.16;5026840;28;20040;-77
2022/05/17 02:24:14;;;;;;;12.45;8.85;;;;;;;17.82;84.25;100630.72;5019186;28;20051;-78
2022/05/17 02:26:39;;;;;;;8.38;6.50;;;;;;;17.85;84.08;100635.94;5031108;28;20083;-77
2022/05/17 02:29:05;;;;;;;11.50;8.70;;;;;;;17.75;85.04;100638.88;5025153;28;20088;-77
2022/05/17 02:31:31;;;;;;;7.72;6.50;;;;;;;17.83;84.49;100637.78;5027564;28;20040;-77
2022/05/17 02:33:56;;;;;;;8.57;6.80;;;;;;;17.90;84.21;100636.66;5025648;28;20034;-77
2022/05/17 02:36:22;;;;;;;7.70;6.85;;;;;;;17.83;84.63;100641.31;5026978;28;20396;-75
2022/05/17 02:38:48;;;;;;;9.10;6.50;;;;;;;17.75;85.11;100630.00;5024515;28;20052;-77
2022/05/17 02:41:18;;;;;;;8.65;6.95;;;;;;;17.66;86.50;100633.88;5029573;28;20029;-77
2022/05/17 02:43:44;;;;;;;13.32;9.18;;;;;;;17.68;87.04;100648.03;5005938;28;20518;-77
2022/05/17 02:46:09;;;;;;;11.75;8.80;;;;;;;17.56;88.31;100637.75;5025419;28;20079;-76
2022/05/17 02:48:35;;;;;;;13.50;10.65;;;;;;;17.49;90.14;100634.41;5029829;28;20061;-76
2022/05/17 02:51:16;;;;;;;11.63;8.77;;;;;;;17.51;89.61;100631.69;5026691;28;20382;-77
2022/05/17 02:53:42;;;;;;;11.30;10.10;;;;;;;17.39;91.04;100640.97;5026474;28;20029;-76
2022/05/17 02:56:07;;;;;;;9.65;8.65;;;;;;;17.40;90.69;100653.41;5029620;28;20484;-76
2022/05/17 02:58:33;;;;;;;13.40;9.75;;;;;;;17.26;90.72;100652.97;5026887;28;20045;-77
2022/05/17 03:00:59;;;;;;;11.30;9.35;;;;;;;17.13;91.53;100655.13;5023105;28;20044;-77
2022/05/17 03:03:25;;;;;;;11.45;10.13;;;;;;;16.97;92.76;100668.06;5026262;28;20037;-77
2022/05/17 03:05:51;;;;;;;12.07;8.10;;;;;;;16.87;93.03;100661.25;5023239;28;20563;-77
2022/05/17 03:08:16;;;;;;;10.82;8.60;;;;;;;16.78;93.80;100664.22;5007476;28;20090;-77
2022/05/17 03:10:43;;;;;;;13.40;10.50;;;;;;;16.73;94.34;100666.09;5024390;28;20062;-77
2022/05/17 03:13:14;;;;;;;12.57;10.13;;;;;;;16.68;95.21;100668.03;5025444;28;20565;-78
2022/05/17 03:26:48;;;;;;;9.65;7.28;;;;;;;15.87;93.51;100703.94;5054391;23;20423;-78
2022/05/17 03:29:13;;;;;;;11.77;7.80;;;;;;;15.79;94.15;100695.28;5030303;28;20041;-79
2022/05/17 03:31:38;;;;;;;11.60;7.57;;;;;;;15.76;94.50;100698.88;5034832;28;20056;-78
2022/05/17 03:34:03;;;;;;;9.88;6.50;;;;;;;15.58;92.88;100699.31;5027857;28;20041;-78
2022/05/17 03:36:29;;;;;;;8.85;7.30;;;;;;;15.45;93.15;100700.50;5008810;28;20037;-78
2022/05/17 03:38:54;;;;;;;9.48;6.03;;;;;;;15.31;93.69;100704.38;5010822;28;20041;-78
2022/05/17 03:41:20;;;;;;;8.68;6.35;;;;;;;15.21;94.40;100713.47;5010047;28;20045;-79
2022/05/17 03:43:48;;;;;;;12.30;7.07;;;;;;;15.12;94.87;100719.88;5011590;28;20038;-79
2022/05/17 03:46:13;;;;;;;9.38;6.72;;;;;;;15.12;94.69;100721.66;5001868;28;20046;-79
2022/05/17 03:48:39;;;;;;;13.95;6.85;;;;;;;15.09;95.06;100717.28;5015959;28;20042;-79
2022/05/17 03:51:13;;;;;;;10.10;6.00;;;;;;;15.05;94.92;100728.00;5013116;28;20049;-79
2022/05/17 03:53:38;;;;;;;12.63;6.25;;;;;;;15.00;95.58;100729.88;4996400;28;20042;-80
2022/05/17 03:56:04;;;;;;;11.90;6.68;;;;;;;14.97;95.97;100744.13;5011301;28;20065;-79
2022/05/17 03:58:30;;;;;;;10.65;6.80;;;;;;;14.89;95.43;100743.41;4988891;28;20038;-80
2022/05/17 04:00:55;;;;;;;12.10;7.10;;;;;;;14.86;96.32;100740.81;4989835;28;20417;-79
2022/05/17 04:03:20;;;;;;;8.60;5.95;;;;;;;14.83;95.79;100740.88;5006308;28;20085;-79
2022/05/17 04:05:46;;;;;;;11.80;6.28;;;;;;;14.81;96.07;100740.03;5006888;28;20117;-79
2022/05/17 04:08:11;;;;;;;9.38;5.43;;;;;;;14.84;95.61;100747.94;4990566;28;20034;-79
2022/05/17 04:10:37;;;;;;;8.48;5.43;;;;;;;14.71;96.00;100752.59;5013767;28;20112;-78
2022/05/17 04:13:04;;;;;;;9.63;6.05;;;;;;;14.67;97.04;100761.53;4992279;28;20035;-78
2022/05/17 04:15:30;;;;;;;9.30;5.90;;;;;;;14.58;97.24;100753.75;4995637;28;20409;-77
2022/05/17 04:17:55;;;;;;;11.30;5.93;;;;;;;14.56;97.66;100756.44;5010475;28;20033;-77
2022/05/17 04:20:21;;;;;;;10.80;6.07;;;;;;;14.55;98.14;100772.41;5008180;28;20112;-77
2022/05/17 04:22:49;;;;;;;8.05;5.68;;;;;;;14.55;98.63;100773.28;5003222;28;20475;-77
2022/05/17 04:25:19;;;;;;;10.38;6.13;;;;;;;14.60;98.73;100782.03;5007987;28;20037;-80
2022/05/17 04:27:46;;;;;;;10.02;6.07;;;;;;;14.58;98.89;100775.00;5013512;28;20026;-81
2022/05/17 04:30:12;;;;;;;10.55;5.53;;;;;;;14.57;99.64;100786.53;4999717;28;20034;-82
2022/05/17 04:32:38;;;;;;;8.10;5.53;;;;;;;14.53;98.93;100787.50;5000948;28;20026;-82
2022/05/17 04:35:04;;;;;;;11.30;6.72;;;;;;;14.57;99.11;100786.53;4991597;28;20034;-81
2022/05/17 04:37:30;;;;;;;10.85;5.93;;;;;;;14.65;98.75;100800.56;5003640;28;20034;-81
2022/05/17 04:39:55;;;;;;;8.65;5.80;;;;;;;14.66;98.25;100796.97;5011566;28;20034;-80
2022/05/17 04:42:21;;;;;;;9.57;5.90;;;;;;;14.62;98.35;100798.84;5012104;28;20034;-81
2022/05/17 04:44:49;;;;;;;10.27;5.40;;;;;;;14.63;98.00;100800.56;5000860;28;20034;-81
2022/05/17 04:47:15;;;;;;;8.60;5.05;;;;;;;14.64;97.70;100809.41;4996730;28;20129;-81
2022/05/17 04:49:40;;;;;;;16.58;5.05;;;;;;;14.57;97.17;100813.97;4986781;28;20065;-81
2022/05/17 04:52:06;;;;;;;7.90;4.82;;;;;;;14.53;96.92;100809.59;5017830;28;20056;-81
2022/05/17 04:54:32;;;;;;;8.40;5.18;;;;;;;14.52;96.86;100799.00;5008628;28;20030;-81
2022/05/17 04:56:57;;;;;;;9.10;5.25;;;;;;;14.51;96.26;100803.41;5007396;28;20034;-82
2022/05/17 04:59:23;;;;;;;11.88;5.13;;;;;;;14.54;96.37;100805.16;5017149;28;20025;-82
2022/05/17 05:01:48;;;;;;;6.97;5.18;;;;;;;14.62;96.85;100804.16;5016732;28;20092;-82
2022/05/17 05:04:14;;;;;;;7.68;4.57;;;;;;;14.66;95.85;100807.59;5013730;28;20029;-82
2022/05/17 05:06:39;;;;;;;6.85;4.22;;;;;;;14.62;94.75;100816.56;5011026;28;20042;-82
2022/05/17 05:09:07;;;;;;;11.68;5.28;;;;;;;14.59;94.73;100816.59;4999981;28;20100;-82
2022/05/17 05:11:32;;;;;;;10.13;4.68;;;;;;;14.57;94.98;100816.63;5012655;28;20057;-82
2022/05/17 05:13:58;;;;;;;10.93;4.75;;;;;;;14.58;94.86;100813.06;4990698;28;20034;-82
2022/05/17 05:16:23;;;;;;;8.20;4.60;;;;;;;14.62;94.82;100820.09;5014213;28;20041;-82
2022/05/17 05:18:50;;;;;;;7.32;4.90;;;;;;;14.59;95.87;100817.50;5017260;28;20046;-82
2022/05/17 05:21:16;;;;;;;7.82;5.00;;;;;;;14.56;95.76;100817.50;5006089;28;20034;-82
2022/05/17 05:23:43;;;;;;;9.75;5.72;;;;;;;14.62;95.86;100817.44;4994965;28;20057;-82
2022/05/17 05:26:11;;;;;;;7.57;4.97;;;;;;;14.60;95.91;100819.22;5023851;23;20038;-75
2022/05/17 05:28:37;;;;;;;8.63;5.18;;;;;;;14.58;95.26;100820.16;4991625;28;20066;-75
2022/05/17 05:31:03;;;;;;;23.35;5.85;;;;;;;14.57;95.40;100821.94;4991742;28;20077;-76
2022/05/17 05:33:31;;;;;;;8.07;4.88;;;;;;;14.58;95.15;100821.03;4991979;28;20093;-76
2022/05/17 05:35:58;;;;;;;8.85;5.22;;;;;;;14.59;95.39;100832.53;4989123;28;20057;-75
2022/05/17 05:38:24;;;;;;;9.50;4.90;;;;;;;14.71;95.40;100821.69;4991752;28;20062;-75
2022/05/17 05:40:49;;;;;;;10.18;4.93;;;;;;;14.75;94.41;100818.06;4991811;28;20114;-74
2022/05/17 05:43:15;;;;;;;6.38;4.63;;;;;;;14.74;94.23;100811.00;4991952;28;20042;-75
2022/05/17 05:45:40;;;;;;;9.75;5.70;;;;;;;14.78;94.12;100818.00;4992023;28;20042;-75
2022/05/17 05:48:06;;;;;;;12.73;5.82;;;;;;;14.72;94.29;100827.88;4991672;28;20117;-75
2022/05/17 05:50:31;;;;;;;8.38;4.80;;;;;;;14.87;94.23;100830.25;4991215;28;20120;-75
2022/05/17 05:53:23;;;;;;;6.82;4.22;;;;;;;14.86;93.14;100847.97;4991489;28;20092;-75
2022/05/17 05:55:50;;;;;;;9.90;5.45;;;;;;;14.87;93.69;100846.19;4989493;28;20100;-75
2022/05/17 05:58:16;;;;;;;9.98;4.93;;;;;;;14.88;93.90;100847.91;4991708;28;20516;-75
2022/05/17 06:00:42;;;;;;;11.35;6.57;;;;;;;14.99;93.57;100855.72;4991613;28;20081;-76
2022/05/17 06:03:08;;;;;;;8.55;4.65;;;;;;;15.07;93.19;100862.63;4987496;28;20065;-75
2022/05/17 06:05:34;;;;;;;6.95;5.03;;;;;;;15.10;92.74;100867.88;4989939;28;20033;-75
2022/05/17 06:07:59;;;;;;;9.82;5.95;;;;;;;15.18;92.98;100859.75;4989420;28;20042;-75
2022/05/17 06:10:25;;;;;;;10.05;6.07;;;;;;;15.21;92.65;100869.47;4990676;28;20044;-75
2022/05/17 06:12:51;;;;;;;10.00;5.13;;;;;;;15.30;92.42;100866.59;4989858;28;20085;-76
2022/05/17 06:15:17;;;;;;;9.57;5.90;;;;;;;15.31;92.09;100866.56;4991492;28;20038;-76
2022/05/17 06:17:42;;;;;;;13.18;7.15;;;;;;;15.38;92.34;100864.69;4991238;28;20038;-76
2022/05/17 06:20:14;;;;;;;13.18;8.13;;;;;;;15.43;91.81;100870.78;4991309;28;20397;-76
2022/05/17 06:22:41;;;;;;;14.23;7.95;;;;;;;15.50;92.51;100877.72;4991209;28;20039;-75
2022/05/17 06:25:07;;;;;;;10.38;5.97;;;;;;;15.55;92.18;100877.63;4989642;28;20034;-75
2022/05/17 06:27:32;;;;;;;10.77;6.47;;;;;;;15.55;91.33;100891.78;5005665;28;20041;-75
2022/05/17 06:29:57;;;;;;;10.07;5.45;;;;;;;15.35;90.99;100901.94;4991362;28;20396;-75
2022/05/17 06:32:23;;;;;;;9.35;6.88;;;;;;;15.31;92.36;100898.50;4990691;28;20408;-75
2022/05/17 06:34:48;;;;;;;11.48;7.57;;;;;;;15.35;92.48;100899.28;4990555;28;20655;-75
2022/05/17 06:37:15;;;;;;;9.98;5.93;;;;;;;15.37;91.73;100905.47;4991397;28;20039;-75
2022/05/17 06:39:41;;;;;;;14.48;9.77;;;;;;;15.45;92.23;100905.31;4991257;28;20053;-75
2022/05/17 06:42:07;;;;;;;14.88;8.35;;;;;;;15.48;91.51;100911.47;4990736;28;20816;-75
2022/05/17 06:44:33;;;;;;;15.43;8.95;;;;;;;15.49;91.28;100910.53;4989915;28;20431;-75
2022/05/17 06:46:59;;;;;;;9.23;6.00;;;;;;;15.54;91.15;100910.47;4991370;28;20041;-75
2022/05/17 06:49:26;;;;;;;9.63;5.88;;;;;;;15.52;91.35;100915.81;4990299;28;20129;-75
2022/05/17 06:51:51;;;;;;;12.98;8.75;;;;;;;15.50;91.54;100914.06;4990447;28;20031;-75
2022/05/17 06:54:17;;;;;;;12.77;9.52;;;;;;;15.70;91.03;100909.25;4991195;28;20419;-75
2022/05/17 06:56:43;;;;;;;15.73;9.40;;;;;;;15.90;90.02;100907.94;4990883;28;20496;-76
2022/05/17 06:59:08;;;;;;;13.88;8.30;;;;;;;15.97;88.73;100909.56;4991090;28;20034;-75
2022/05/17 07:01:34;;;;;;;10.18;6.10;;;;;;;15.91;88.26;100923.88;4993116;28;20037;-74
2022/05/17 07:03:59;;;;;;;10.60;6.68;;;;;;;15.89;89.13;100927.50;4994567;28;20697;-75
2022/05/17 07:06:26;;;;;;;13.25;7.80;;;;;;;15.93;88.35;100926.53;4992968;28;20069;-75
2022/05/17 07:08:51;;;;;;;11.85;6.80;;;;;;;15.90;87.78;100934.56;4994472;28;20157;-75
2022/05/17 07:14:01;;;;;;;13.80;8.10;;;;;;;16.16;87.58;100937.50;4994587;28;20117;-75
2022/05/17 07:16:26;;;;;;;10.02;6.53;;;;;;;16.12;86.07;100946.50;4994216;28;20126;-75
2022/05/17 07:18:51;;;;;;;12.65;6.72;;;;;;;15.97;86.82;100953.03;4990576;28;20121;-76
2022/05/17 07:21:17;;;;;;;14.10;7.28;;;;;;;15.92;86.90;100962.03;4993655;28;20106;-75
2022/05/17 07:23:43;;;;;;;9.48;5.90;;;;;;;15.81;86.79;100961.38;4994217;28;20038;-75
2022/05/17 07:26:09;;;;;;;9.82;5.72;;;;;;;15.78;87.34;100971.19;4994084;28;20042;-75
2022/05/17 07:28:40;;;;;;;11.93;6.15;;;;;;;15.89;87.13;100978.06;4994182;28;20030;-75
2022/05/17 07:31:06;;;;;;;9.75;6.20;;;;;;;15.80;87.05;100980.91;4990431;28;20034;-75
2022/05/17 07:33:32;;;;;;;9.40;6.15;;;;;;;15.86;87.11;100978.13;4994119;28;20038;-76
2022/05/17 07:35:57;;;;;;;14.43;7.45;;;;;;;15.95;86.80;100980.59;4993582;28;20109;-75
2022/05/17 07:38:23;;;;;;;10.15;5.85;;;;;;;15.91;87.44;100993.09;4993789;28;20126;-75
2022/05/17 07:40:50;;;;;;;9.05;6.45;;;;;;;15.87;88.17;100993.19;4994053;28;20109;-75
2022/05/17 07:43:15;;;;;;;11.20;6.70;;;;;;;15.92;87.65;100996.63;4993655;28;20133;-76
2022/05/17 07:45:41;;;;;;;10.70;6.10;;;;;;;15.96;87.64;101006.31;4993707;28;20121;-76
2022/05/17 07:48:08;;;;;;;9.60;6.22;;;;;;;16.03;87.43;100996.41;4992147;28;20041;-75
2022/05/17 07:50:34;;;;;;;12.10;6.68;;;;;;;16.11;86.66;101002.44;4992389;28;20034;-75
2022/05/17 07:53:08;;;;;;;9.15;6.57;;;;;;;16.28;85.23;100994.09;4991412;28;20105;-76
2022/05/17 07:55:35;;;;;;;8.70;5.65;;;;;;;16.51;84.81;100988.25;4992887;28;20381;-75
2022/05/17 07:58:01;;;;;;;10.23;6.00;;;;;;;16.74;82.93;100990.34;4993321;28;20041;-75
2022/05/17 08:00:27;;;;;;;9.35;6.28;;;;;;;16.98;82.31;100992.44;4993217;28;20034;-75
2022/05/17 08:02:55;;;;;;;9.65;6.35;;;;;;;17.06;81.51;100995.78;4993141;28;20092;-76
2022/05/17 08:05:21;;;;;;;9.90;6.13;;;;;;;17.14;81.30;101002.72;4993220;28;20097;-75
2022/05/17 08:07:48;;;;;;;8.48;6.35;;;;;;;17.28;79.97;101005.91;4992063;28;20034;-75
2022/05/17 08:10:14;;;;;;;10.32;6.60;;;;;;;17.24;80.38;101014.91;4993391;28;20485;-75
2022/05/17 08:12:39;;;;;;;9.20;6.60;;;;;;;17.38;80.05;101012.75;4991870;28;20034;-75
2022/05/17 08:15:05;;;;;;;11.43;6.75;;;;;;;17.52;78.47;101015.91;4993285;28;20053;-76
2022/05/17 08:17:30;;;;;;;8.45;6.13;;;;;;;17.75;77.78;101017.94;4992994;28;20069;-76
2022/05/17 08:19:55;;;;;;;8.93;5.53;;;;;;;17.85;76.86;101015.06;4993210;28;20069;-75
2022/05/17 08:22:21;;;;;;;9.00;5.57;;;;;;;17.75;76.94;101017.94;4992457;28;20516;-76
2022/05/17 08:27:36;;;;;;;9.38;6.20;;;;;;;18.04;76.05;101015.41;4992107;28;20073;-76
2022/05/17 08:30:05;;;;;;;9.27;6.65;;;;;;;17.98;75.59;101011.13;4993047;28;20046;-75
2022/05/17 08:35:14;;;;;;;10.30;6.07;;;;;;;18.32;74.09;101016.31;4992866;28;20042;-76
2022/05/17 08:37:40;;;;;;;12.02;6.18;;;;;;;18.21;73.78;101020.22;4992660;28;20120;-76
2022/05/17 08:40:06;;;;;;;7.88;5.32;;;;;;;18.09;74.23;101027.69;4992713;28;20038;-76
2022/05/17 08:42:53;;;;;;;10.10;6.20;;;;;;;17.90;74.48;101024.69;4992356;28;20049;-75
2022/05/17 08:45:32;;;;;;;9.07;5.47;;;;;;;17.88;74.54;101033.66;4992670;28;20042;-75
2022/05/17 08:47:58;;;;;;;9.70;5.85;;;;;;;18.13;74.14;101040.06;4990351;28;20045;-75
2022/05/17 08:50:31;;;;;;;10.63;6.30;;;;;;;18.16;74.16;101039.09;4991238;28;20047;-75
2022/05/17 08:52:56;;;;;;;7.72;5.22;;;;;;;18.31;73.36;101037.72;4991342;28;20074;-75
2022/05/17 08:55:34;;;;;;;8.10;5.43;;;;;;;18.48;72.27;101038.09;4991382;28;20540;-76
2022/05/17 08:58:07;;;;;;;8.93;5.68;;;;;;;18.52;72.07;101041.53;4990808;28;20474;-76
2022/05/17 09:00:39;;;;;;;9.52;6.32;;;;;;;18.79;71.71;101048.75;4988899;28;20034;-75
2022/05/17 09:03:25;;;;;;;8.13;5.60;;;;;;;19.16;71.08;101044.84;4991992;28;20041;-75
2022/05/17 09:06:07;;;;;;;7.43;5.30;;;;;;;19.13;69.26;101052.13;4990623;28;20393;-75
2022/05/17 09:08:41;;;;;;;8.57;6.00;;;;;;;19.06;68.36;101054.13;4988205;28;20049;-76
2022/05/17 09:11:37;;;;;;;9.75;6.35;;;;;;;18.97;69.26;101054.44;4991858;28;20038;-75
2022/05/17 09:14:14;;;;;;;8.32;6.03;;;;;;;19.31;68.91;101050.59;4992070;28;20053;-76
2022/05/17 09:16:44;;;;;;;8.98;5.90;;;;;;;19.56;66.98;101046.16;4989380;28;20398;-76
2022/05/17 09:19:10;;;;;;;8.77;5.80;;;;;;;19.66;66.21;101054.75;4990799;28;20044;-76
2022/05/17 09:21:41;;;;;;;10.77;6.35;;;;;;;19.90;65.60;101050.34;4990388;28;20034;-75
2022/05/17 09:24:13;;;;;;;10.52;6.32;;;;;;;19.79;65.27;101057.91;4991411;28;20497;-75
2022/05/17 09:26:50;;;;;;;8.15;5.22;;;;;;;19.97;67.25;101062.59;4991795;28;20673;-75
2022/05/17 09:29:27;;;;;;;9.60;5.15;;;;;;;19.75;65.57;101059.78;4992401;28;20096;-75
2022/05/17 09:32:01;;;;;;;10.57;5.90;;;;;;;19.36;66.83;101062.94;4991773;28;20041;-75
2022/05/17 09:34:34;;;;;;;10.27;5.70;;;;;;;19.38;68.18;101070.88;4992370;28;20089;-76
2022/05/17 09:37:11;;;;;;;6.95;4.85;;;;;;;19.49;68.42;101068.72;4991493;28;20042;-76
2022/05/17 09:39:37;;;;;;;8.50;5.53;;;;;;;19.40;67.05;101069.03;4991835;28;20034;-75
2022/05/17 09:42:08;;;;;;;7.60;4.60;;;;;;;19.56;68.57;101069.38;4991516;28;20103;-76
2022/05/17 09:44:40;;;;;;;9.48;5.20;;;;;;;19.73;68.18;101072.38;4991783;28;20038;-75
2022/05/17 09:47:06;;;;;;;7.95;5.25;;;;;;;19.85;67.17;101076.41;4988439;28;20054;-76
2022/05/17 09:52:44;;;;;;;8.07;5.50;;;;;;;19.83;67.80;101072.91;4991256;28;20046;-76
2022/05/17 09:55:23;;;;;;;6.93;5.00;;;;;;;19.92;67.10;101077.94;4989185;28;20034;-75
2022/05/17 09:57:54;;;;;;;11.18;5.85;;;;;;;20.09;66.17;101080.00;4991460;28;20042;-76
2022/05/17 10:00:27;;;;;;;7.75;5.35;;;;;;;19.90;66.01;101074.44;4991158;28;20042;-76
2022/05/17 10:02:55;;;;;;;10.82;6.13;;;;;;;19.85;66.06;101079.09;4991363;28;20093;-76
2022/05/17 10:05:52;;;;;;;8.88;5.47;;;;;;;20.00;66.86;101083.91;4991498;28;20046;-75
2022/05/17 10:08:17;;;;;;;9.45;5.35;;;;;;;20.16;66.56;101088.69;4967529;28;20046;-75
2022/05/17 10:10:46;;;;;;;8.63;5.18;;;;;;;20.11;66.46;101094.22;4991463;28;20057;-76
2022/05/17 10:13:18;;;;;;;10.30;7.10;;;;;;;20.07;66.35;101088.13;4990886;28;20489;-75
2022/05/17 10:15:48;;;;;;;9.07;5.32;;;;;;;20.32;65.68;101096.09;4989587;28;20077;-75
2022/05/17 10:18:26;;;;;;;10.15;5.30;;;;;;;20.48;65.33;101084.78;4991021;28;20030;-75
2022/05/17 10:20:56;;;;;;;9.68;4.50;;;;;;;20.71;63.49;101070.53;4990428;28;20536;-75
2022/05/17 10:23:34;;;;;;;7.68;4.60;;;;;;;20.78;62.66;101080.09;4990826;28;20045;-75
2022/05/17 10:26:05;;;;;;;7.57;5.15;;;;;;;21.09;62.89;101073.44;4985771;28;20045;-75
2022/05/17 10:28:43;;;;;;;7.30;5.22;;;;;;;21.52;61.93;101077.94;4991375;28;20105;-76
2022/05/17 10:31:26;;;;;;;11.27;6.07;;;;;;;22.01;59.96;101077.59;4990777;28;20504;-76
2022/05/17 10:34:17;;;;;;;7.03;4.85;;;;;;;21.71;58.78;101078.00;4988519;28;20629;-75
2022/05/17 10:36:47;;;;;;;7.13;4.60;;;;;;;21.58;59.47;101079.47;4991089;28;20049;-75
2022/05/17 10:39:28;;;;;;;8.20;5.00;;;;;;;21.63;59.62;101080.16;4991975;28;20089;-76
2022/05/17 10:41:54;;;;;;;9.90;6.65;;;;;;;21.77;60.54;101071.47;4995254;28;20389;-75
2022/05/17 10:44:20;;;;;;;9.52;7.43;;;;;;;22.06;59.64;101072.84;4994742;28;20039;-75
2022/05/17 10:46:55;;;;;;;7.57;5.78;;;;;;;22.09;58.56;101070.06;4993380;28;20030;-75
2022/05/17 10:49:30;;;;;;;7.43;4.75;;;;;;;21.71;57.88;101069.06;4992838;28;20034;-76
2022/05/17 10:52:23;;;;;;;7.30;5.10;;;;;;;21.55;58.52;101079.63;4994626;28;20378;-76
2022/05/17 10:55:12;;;;;;;8.00;5.82;;;;;;;21.52;59.51;101082.44;4995154;28;20096;-76
2022/05/17 10:58:03;;;;;;;9.55;7.07;;;;;;;21.71;59.21;101083.38;4991555;28;20034;-76
2022/05/17 11:00:39;;;;;;;8.77;5.57;;;;;;;21.82;59.41;101081.09;4992002;28;20038;-75
2022/05/17 11:03:20;;;;;;;10.23;8.93;;;;;;;21.95;59.10;101080.53;4995106;28;20434;-76
2022/05/17 11:06:04;;;;;;;8.50;5.45;;;;;;;21.92;59.28;101086.06;4988901;28;20038;-76
2022/05/17 11:08:52;;;;;;;5.72;4.68;;;;;;;22.08;58.69;101076.34;4994791;28;20038;-76
2022/05/17 11:11:54;;;;;;;9.77;8.30;;;;;;;22.04;58.76;101080.13;4991373;28;20441;-76
2022/05/17 11:14:25;;;;;;;10.02;5.18;;;;;;;21.99;58.76;101071.41;4994846;28;20560;-76
2022/05/17 11:17:13;;;;;;;9.30;5.28;;;;;;;22.00;58.68;101073.16;4994590;28;20453;-76
2022/05/17 11:19:51;;;;;;;7.85;5.55;;;;;;;22.14;58.05;101073.41;4994615;28;20097;-76
2022/05/17 11:22:27;;;;;;;7.35;4.75;;;;;;;22.18;56.92;101066.06;4994326;28;20065;-76
2022/05/17 11:25:21;;;;;;;11.88;7.15;;;;;;;22.26;56.90;101069.31;4990876;28;20049;-76
2022/05/17 11:28:21;;;;;;;7.93;4.57;;;;;;;22.33;55.31;101083.34;4993172;28;20069;-76
2022/05/17 11:31:06;;;;;;;8.13;5.63;;;;;;;22.51;55.78;101079.78;4977706;28;20053;-76
2022/05/17 11:33:31;;;;;;;7.50;4.85;;;;;;;22.68;56.66;101073.59;4990723;28;20397;-76
2022/05/17 11:36:09;;;;;;;8.00;4.55;;;;;;;22.99;54.04;101074.84;4993773;28;20133;-76
2022/05/17 11:38:34;;;;;;;8.25;4.32;;;;;;;22.76;54.82;101074.97;4994054;28;20066;-76
2022/05/17 11:41:07;;;;;;;7.75;5.97;;;;;;;22.97;54.80;101073.06;4993737;28;20524;-76
2022/05/17 11:43:50;;;;;;;6.30;3.83;;;;;;;23.10;54.07;101067.09;4994001;28;20053;-76
2022/05/17 11:46:38;;;;;;;7.18;4.57;;;;;;;23.07;53.66;101062.72;4992675;28;20045;-76
2022/05/17 11:49:16;;;;;;;8.70;4.00;;;;;;;22.89;53.55;101069.00;4991920;28;20041;-76
2022/05/17 11:51:56;;;;;;;8.27;5.07;;;;;;;22.74;54.61;101070.59;4993691;28;20034;-76
2022/05/17 11:54:40;;;;;;;5.85;4.20;;;;;;;22.88;53.63;101078.03;4993649;28;20073;-76
2022/05/17 11:57:09;;;;;;;8.52;4.35;;;;;;;22.55;54.71;101078.69;4991943;28;20053;-76